ADDS METAR Data INFO
IDs: Format: Raw Decoded Include TAF

Data at: 1901 UTC 21 Apr 2018

METAR for:LFAQ (Albert/Picardie Arpt, --, FR)
Text:LFAQ 211830Z AUTO 08004KT CAVOK 20/12 Q1017
Temperature: 20.0°C ( 68°F)
Dewpoint: 12.0°C ( 54°F) [RH = 60%]
Pressure (altimeter):30.03 inches Hg (1017.0 mb)
Winds:from the E (80 degrees) at 5 MPH (4 knots; 2.1 m/s)
Visibility:6 or more sm (10+ km)
Ceiling:ceiling and visibility are OK
Clouds:unknown

TAF for:LFAQ (Albert/Picardie Arpt, --, FR) issued at 1400 UTC 21 Apr 2018
Text:TAF LFAQ 211400Z 2115/2124 08006KT CAVOK
Forecast period:1500 UTC 21 April 2018 to 0000 UTC 22 April 2018
Forecast type:FROM: standard forecast or significant change
Winds:from the E (80 degrees) at 7 MPH (6 knots; 3.1 m/s)
Visibility:6 or more sm (10+ km)
Clouds:missing
Weather:NSW (no significant weather)